createdAt,value
2024-04-30T05:38:08.992Z,99441.03
2024-04-30T05:41:13.008Z,99442.47
2024-04-30T05:44:19.434Z,99447.22
2024-04-30T05:47:23.226Z,99439.47
2024-04-30T05:50:29.232Z,99438.63
2024-04-30T05:53:39.092Z,99441.06
2024-04-30T05:56:42.436Z,99444.06
2024-04-30T05:59:48.877Z,99442.13
2024-04-30T06:02:52.174Z,99445.19
2024-04-30T06:05:58.585Z,99450.63
2024-04-30T06:09:04.648Z,99440.66
2024-04-30T06:12:11.857Z,99437.22
2024-04-30T06:15:15.277Z,99435.16
2024-04-30T06:18:21.763Z,99431.06
2024-04-30T06:21:31.172Z,99446.91
2024-04-30T06:24:45.334Z,99444.09
2024-04-30T06:27:49.320Z,99441.25
2024-04-30T06:30:55.741Z,99429.31
2024-04-30T06:33:59.040Z,99439.19
2024-04-30T06:37:05.569Z,99440.22
2024-04-30T06:40:15.009Z,99434.84
2024-04-30T06:43:18.991Z,99436.00
2024-04-30T06:46:25.066Z,99438.00
2024-04-30T06:49:28.972Z,99434.97
2024-04-30T06:52:35.137Z,99429.00
2024-04-30T06:55:42.005Z,99430.03
2024-04-30T06:58:48.990Z,99433.91
2024-04-30T07:01:52.730Z,99436.81
2024-04-30T07:04:58.853Z,99417.16
2024-04-30T07:08:02.990Z,99431.22
2024-04-30T07:11:12.616Z,99429.56
2024-04-30T07:14:19.081Z,99427.09
2024-04-30T07:17:22.627Z,99429.44
2024-04-30T07:20:29.803Z,99428.97
2024-04-30T07:23:35.877Z,99426.56
2024-04-30T07:26:42.491Z,99418.56
2024-04-30T07:29:48.525Z,99428.28
2024-04-30T07:32:52.436Z,99420.06
2024-04-30T07:35:58.558Z,99428.09
2024-04-30T07:39:02.480Z,99418.09
2024-04-30T07:42:11.720Z,99411.44
2024-04-30T07:45:15.819Z,99412.44
2024-04-30T07:48:21.924Z,99403.81
2024-04-30T07:51:26.038Z,99413.59
2024-04-30T07:54:31.992Z,99410.94
2024-04-30T07:57:38.478Z,99420.03
2024-04-30T08:00:44.594Z,99414.13
2024-04-30T08:03:51.261Z,99418.47
2024-04-30T08:06:54.601Z,99412.50
2024-04-30T08:10:01.421Z,99410.47
2024-04-30T08:13:11.376Z,99424.59
2024-04-30T08:16:18.549Z,99409.25
2024-04-30T08:19:24.677Z,99404.72
2024-04-30T08:22:31.638Z,99409.00
2024-04-30T08:25:37.626Z,99412.94
2024-04-30T08:28:44.129Z,99396.97
2024-04-30T08:31:50.649Z,99399.16
2024-04-30T08:34:57.613Z,99397.97
2024-04-30T08:38:01.807Z,99394.22
2024-04-30T08:41:10.072Z,99397.53
2024-04-30T08:44:20.790Z,99396.56
2024-04-30T08:47:30.992Z,99391.38
2024-04-30T08:50:37.194Z,99395.28
2024-04-30T08:53:43.761Z,99396.03
2024-04-30T08:56:47.108Z,99388.94
2024-04-30T08:59:56.617Z,99394.69
2024-04-30T09:03:04.212Z,99391.44
2024-04-30T09:06:13.307Z,99378.00
2024-04-30T09:09:21.207Z,99378.09
2024-04-30T09:12:25.115Z,99377.03
2024-04-30T09:15:33.841Z,99373.09
2024-04-30T09:18:40.467Z,99369.25
2024-04-30T09:21:48.040Z,99356.22
2024-04-30T09:24:54.610Z,99358.72
2024-04-30T09:27:57.961Z,99357.53
2024-04-30T09:31:11.381Z,99345.09
2024-04-30T09:34:17.498Z,99351.13
2024-04-30T09:37:26.407Z,99352.88
2024-04-30T09:40:34.569Z,99333.50
2024-04-30T09:43:42.433Z,99349.13
2024-04-30T09:46:54.538Z,99332.34
2024-04-30T09:50:06.395Z,99328.31
2024-04-30T09:53:13.652Z,99324.22
2024-04-30T09:56:21.421Z,99322.31
2024-04-30T09:59:27.403Z,99321.22
2024-04-30T10:02:41.620Z,99312.47
2024-04-30T10:05:53.524Z,99314.31
2024-04-30T10:09:00.278Z,99302.63
2024-04-30T10:12:06.724Z,99302.78
2024-04-30T10:15:15.700Z,99313.66
2024-04-30T10:18:30.625Z,99306.13
2024-04-30T10:21:38.818Z,99302.88
2024-04-30T10:24:42.212Z,99296.84
2024-04-30T10:27:49.041Z,99295.25
2024-04-30T10:30:52.313Z,99283.31
2024-04-30T10:34:12.141Z,99288.38
2024-04-30T10:37:18.214Z,99283.72
2024-04-30T10:40:24.826Z,99285.16
2024-04-30T10:43:31.069Z,99291.59
2024-04-30T10:46:37.839Z,99286.56
2024-04-30T10:49:46.852Z,99284.53
2024-04-30T10:52:50.634Z,99281.28
2024-04-30T10:56:00.952Z,99288.59
2024-04-30T10:59:07.774Z,99280.25
2024-04-30T11:02:13.840Z,99255.41
2024-04-30T11:05:24.661Z,99265.94
2024-04-30T11:08:29.302Z,99261.06
2024-04-30T11:11:55.036Z,99257.47
2024-04-30T11:14:58.490Z,99237.44
2024-04-30T11:18:05.143Z,99237.16
2024-04-30T11:21:13.993Z,99241.22
2024-04-30T11:24:18.134Z,99233.03
2024-04-30T11:27:24.135Z,99230.31
2024-04-30T11:30:30.445Z,99222.06
2024-04-30T11:33:36.452Z,99218.19
2024-04-30T11:36:45.893Z,99219.31
2024-04-30T11:39:51.914Z,99208.50
2024-04-30T11:42:55.831Z,99196.59
2024-04-30T11:46:01.803Z,99206.41
2024-04-30T11:49:08.200Z,99199.63
2024-04-30T11:52:14.246Z,99204.34
2024-04-30T11:55:20.602Z,99200.09
2024-04-30T11:58:26.593Z,99199.53
2024-04-30T12:01:33.088Z,99192.38
2024-04-30T12:04:36.497Z,99200.72
2024-04-30T12:07:45.797Z,99185.97
2024-04-30T12:10:49.228Z,99186.03
2024-04-30T12:13:57.354Z,99188.28
2024-04-30T12:17:03.483Z,99182.75
2024-04-30T12:20:12.121Z,99177.91
2024-04-30T12:23:22.090Z,99173.03
2024-04-30T12:26:28.525Z,99162.63
2024-04-30T12:29:34.454Z,99162.03
2024-04-30T12:32:38.401Z,99155.88
2024-04-30T12:35:46.693Z,99146.00
2024-04-30T12:38:53.604Z,99154.56
2024-04-30T12:41:59.596Z,99137.16
2024-04-30T12:45:06.479Z,99133.19
2024-04-30T12:48:12.643Z,99133.19
2024-04-30T12:51:18.028Z,99127.78
2024-04-30T12:54:26.897Z,99119.53
2024-04-30T12:57:33.315Z,99125.09
2024-04-30T13:00:36.628Z,99111.22
2024-04-30T13:03:43.141Z,99107.91
2024-04-30T13:06:47.095Z,99115.66
2024-04-30T13:09:56.332Z,99105.63
2024-04-30T13:13:02.390Z,99105.16
2024-04-30T13:16:07.180Z,99099.41
2024-04-30T13:19:13.541Z,99102.84
2024-04-30T13:22:17.475Z,99095.31
2024-04-30T13:25:26.360Z,99082.22
2024-04-30T13:28:30.243Z,99070.06
2024-04-30T13:31:37.190Z,99082.56
2024-04-30T13:34:42.670Z,99074.31
2024-04-30T13:37:49.124Z,99070.72
2024-04-30T13:41:00.928Z,99068.72
2024-04-30T13:44:08.007Z,99075.22
2024-04-30T13:47:11.416Z,99062.44
2024-04-30T13:50:18.221Z,99058.06
2024-04-30T13:53:24.375Z,99053.56
2024-04-30T13:56:31.062Z,99061.03
2024-04-30T13:59:37.271Z,99051.91
2024-04-30T14:02:43.767Z,99052.94
2024-04-30T14:05:49.803Z,99049.56
2024-04-30T15:32:02.399Z,98951.63
2024-04-30T15:35:07.083Z,98951.59
2024-04-30T15:38:13.069Z,98943.59
2024-04-30T15:41:23.964Z,98931.75
2024-04-30T15:44:30.030Z,98936.56
2024-04-30T15:47:36.710Z,98932.59
2024-04-30T15:50:42.797Z,98925.34
2024-04-30T15:53:49.452Z,98926.59
2024-04-30T15:57:01.375Z,98926.19
2024-04-30T16:00:12.002Z,98917.53
2024-04-30T16:03:23.339Z,98910.41
2024-04-30T16:06:30.012Z,98916.50
2024-04-30T16:09:39.067Z,98919.66
2024-04-30T16:12:47.668Z,98908.75
2024-04-30T16:16:00.259Z,98908.28
2024-04-30T16:19:15.630Z,98908.09
2024-04-30T16:22:21.980Z,98898.06
2024-04-30T16:25:28.722Z,98912.06
2024-04-30T16:28:32.215Z,98909.44
2024-04-30T16:31:38.839Z,98907.72
2024-04-30T16:34:47.571Z,98901.50
2024-04-30T16:37:51.387Z,98910.66
2024-04-30T16:40:57.546Z,98900.53
2024-04-30T16:44:16.423Z,98920.31
2024-04-30T16:47:35.123Z,98911.41
2024-04-30T16:50:56.533Z,98905.06
2024-04-30T16:54:02.028Z,98902.03
2024-04-30T16:57:07.434Z,98902.28
2024-04-30T17:00:38.277Z,98899.94
2024-04-30T17:03:41.310Z,98893.50
2024-04-30T17:06:51.766Z,98893.59
2024-04-30T17:09:56.749Z,98904.53
2024-04-30T17:13:02.300Z,98913.16
2024-04-30T17:16:06.311Z,98905.34
2024-04-30T17:19:11.991Z,98911.53
2024-04-30T17:22:16.918Z,98912.00
2024-04-30T17:25:22.256Z,98917.94
2024-04-30T17:28:25.076Z,98908.31
2024-04-30T17:31:30.488Z,98910.19
2024-04-30T17:34:33.344Z,98906.59
2024-04-30T17:37:41.451Z,98912.28
2024-04-30T17:40:47.232Z,98903.66
2024-04-30T17:43:52.634Z,98906.44
2024-04-30T17:46:58.101Z,98905.44
2024-04-30T17:50:01.322Z,98894.13
2024-04-30T17:53:08.698Z,98900.56
2024-04-30T17:56:14.375Z,98905.75
2024-04-30T17:59:19.334Z,98898.56
2024-04-30T18:02:24.748Z,98905.81
2024-04-30T18:05:27.601Z,98905.13
2024-04-30T18:08:35.402Z,98904.00
2024-04-30T18:11:41.060Z,98898.81
2024-04-30T18:14:47.368Z,98905.03
2024-04-30T18:17:54.183Z,98907.41
2024-04-30T18:20:59.966Z,98913.78
2024-04-30T18:24:08.006Z,98917.41
2024-04-30T18:27:12.883Z,98922.88
2024-04-30T18:30:18.229Z,98926.28
2024-04-30T18:33:21.921Z,98925.88
2024-04-30T18:36:27.779Z,98934.91
2024-04-30T18:39:33.599Z,98935.41
2024-04-30T18:42:38.648Z,98931.22
2024-04-30T18:45:44.224Z,98926.47
2024-04-30T18:48:47.801Z,98933.63
2024-04-30T18:51:55.061Z,98935.97
2024-04-30T18:55:00.207Z,98941.00
2024-04-30T18:58:05.778Z,98943.94
2024-04-30T19:01:09.283Z,98942.69
2024-04-30T19:04:15.038Z,98945.84
2024-04-30T19:07:19.968Z,98933.28
2024-04-30T19:10:27.529Z,98938.13
2024-04-30T19:13:32.575Z,98941.03
2024-04-30T19:16:41.333Z,98937.28
2024-04-30T19:19:49.626Z,98936.63
2024-04-30T19:22:58.470Z,98940.78
2024-04-30T19:26:04.079Z,98942.88
2024-04-30T19:29:09.539Z,98948.31
2024-04-30T19:32:15.944Z,98946.00
2024-04-30T19:35:19.224Z,98940.16
2024-04-30T19:38:24.234Z,98940.53
2024-04-30T19:41:31.933Z,98934.22
2024-04-30T19:45:08.600Z,98938.81
2024-04-30T19:48:17.015Z,98929.59
2024-04-30T19:51:22.675Z,98930.44
2024-04-30T19:54:28.162Z,98929.75
2024-04-30T19:57:33.148Z,98922.84
2024-04-30T20:00:38.793Z,98930.75
2024-04-30T20:03:41.819Z,98936.59
2024-04-30T20:06:47.529Z,98926.50
2024-04-30T20:09:52.652Z,98929.00
2024-04-30T20:12:58.151Z,98931.63
2024-04-30T20:16:03.160Z,98946.31
2024-04-30T20:19:09.353Z,98966.59
